createdAt,value
2018-08-09T00:01:18.870Z,3.57
2018-08-09T00:03:46.861Z,3.03
2018-08-09T00:06:14.857Z,5.63
2018-08-09T00:08:42.833Z,3.87
2018-08-09T00:11:11.250Z,3.20
2018-08-09T00:13:39.228Z,3.00
2018-08-09T00:16:07.206Z,7.53
2018-08-09T00:18:35.223Z,2.73
2018-08-09T00:21:03.216Z,3.57
2018-08-09T00:23:31.261Z,4.50
2018-08-09T00:26:05.713Z,4.00
2018-08-09T00:28:33.762Z,3.83
2018-08-09T00:31:01.831Z,4.50
2018-08-09T00:33:29.830Z,2.90
2018-08-09T00:35:57.920Z,2.63
2018-08-09T00:38:25.927Z,3.33
2018-08-09T00:40:53.914Z,3.10
2018-08-09T00:43:21.911Z,3.37
2018-08-09T00:45:49.926Z,3.67
2018-08-09T00:48:17.946Z,3.73
2018-08-09T00:50:46.037Z,3.43
2018-08-09T00:53:14.030Z,3.67
2018-08-09T00:55:42.022Z,2.70
2018-08-09T00:58:10.027Z,4.50
2018-08-09T01:00:38.001Z,3.90
2018-08-09T01:03:05.989Z,3.20
2018-08-09T01:05:33.985Z,3.37
2018-08-09T01:08:01.975Z,5.77
2018-08-09T01:10:29.954Z,3.83
2018-08-09T01:12:57.975Z,3.40
2018-08-09T01:15:26.027Z,3.97
2018-08-09T01:17:54.031Z,4.80
2018-08-09T01:20:22.034Z,4.20
2018-08-09T01:22:50.032Z,2.97
2018-08-09T01:25:18.024Z,3.60
2018-08-09T01:27:45.998Z,4.07
2018-08-09T01:30:13.997Z,2.93
2018-08-09T01:32:42.020Z,3.37
2018-08-09T01:35:09.984Z,4.60
2018-08-09T01:37:37.963Z,3.80
2018-08-09T01:40:06.115Z,3.57
2018-08-09T01:42:39.833Z,3.73
2018-08-09T01:45:07.810Z,6.90
2018-08-09T01:47:35.804Z,3.77
2018-08-09T01:50:04.146Z,3.90
2018-08-09T01:52:32.124Z,8.83
2018-08-09T01:55:00.118Z,3.20
2018-08-09T01:57:28.102Z,4.20
2018-08-09T01:59:56.198Z,4.03
2018-08-09T02:02:24.183Z,2.80
2018-08-09T02:04:52.249Z,3.37
2018-08-09T02:07:20.166Z,3.50
2018-08-09T02:09:48.158Z,3.37
2018-08-09T02:12:16.145Z,3.70
2018-08-09T02:14:44.130Z,2.80
2018-08-09T02:17:12.167Z,3.10
2018-08-09T02:19:40.146Z,3.70
2018-08-09T02:22:08.126Z,3.40
2018-08-09T02:24:36.130Z,3.43
2018-08-09T02:27:04.126Z,3.73
2018-08-09T02:29:32.118Z,5.97
2018-08-09T02:32:00.526Z,5.30
2018-08-09T02:34:28.522Z,3.40
2018-08-09T02:36:56.527Z,3.13
2018-08-09T02:39:24.512Z,3.50
2018-08-09T02:41:52.490Z,3.50
2018-08-09T02:44:20.473Z,3.30
2018-08-09T02:46:48.516Z,3.03
2018-08-09T02:49:16.423Z,3.90
2018-08-09T02:51:44.392Z,3.20
2018-08-09T02:54:12.358Z,3.83
2018-08-09T02:56:40.331Z,3.40
2018-08-09T02:59:08.326Z,4.20
2018-08-09T03:01:36.302Z,3.90
2018-08-09T03:04:04.288Z,3.90
2018-08-09T03:06:32.283Z,3.73
2018-08-09T03:09:00.245Z,3.37
2018-08-09T03:11:28.346Z,4.53
2018-08-09T03:13:56.311Z,3.93
2018-08-09T03:16:24.282Z,4.33
2018-08-09T03:18:52.266Z,3.53
2018-08-09T03:21:20.259Z,7.07
2018-08-09T03:23:48.240Z,4.73
2018-08-09T03:26:16.233Z,4.57
2018-08-09T03:28:44.214Z,3.50
2018-08-09T03:31:12.206Z,5.10
2018-08-09T03:33:40.182Z,4.83
2018-08-09T03:36:08.169Z,3.47
2018-08-09T03:38:36.141Z,3.30
2018-08-09T03:41:04.142Z,3.70
2018-08-09T03:43:32.121Z,7.77
2018-08-09T03:46:00.103Z,3.60
2018-08-09T03:48:28.095Z,3.43
2018-08-09T03:50:56.091Z,5.17
2018-08-09T03:53:24.079Z,4.73
2018-08-09T03:55:52.077Z,5.07
2018-08-09T03:58:20.276Z,3.37
2018-08-09T04:00:48.234Z,4.20
2018-08-09T04:03:16.238Z,4.60
2018-08-09T04:05:44.224Z,4.07
2018-08-09T04:08:12.225Z,15.53
2018-08-09T04:10:40.217Z,3.63
2018-08-09T04:13:08.189Z,4.70
2018-08-09T04:15:36.177Z,7.57
2018-08-09T04:18:04.176Z,4.93
2018-08-09T04:20:32.178Z,5.87
2018-08-09T04:23:00.159Z,7.10
2018-08-09T04:25:28.141Z,3.87
2018-08-09T04:27:56.127Z,5.80
2018-08-09T04:30:24.125Z,5.83
2018-08-09T04:32:52.114Z,4.23
2018-08-09T04:35:20.095Z,4.40
2018-08-09T04:37:48.136Z,5.17
2018-08-09T04:40:16.070Z,3.80
2018-08-09T04:42:44.063Z,3.30
2018-08-09T04:45:12.041Z,4.33
2018-08-09T04:47:40.017Z,4.07
2018-08-09T04:50:08.634Z,4.20
2018-08-09T04:52:36.618Z,4.47
2018-08-09T04:55:04.598Z,4.10
2018-08-09T04:57:32.596Z,3.80
2018-08-09T05:00:07.143Z,4.43
2018-08-09T05:02:35.128Z,4.40
2018-08-09T05:05:03.099Z,6.33
2018-08-09T05:07:31.086Z,4.30
2018-08-09T05:10:04.499Z,4.87
2018-08-09T05:12:32.478Z,4.03
2018-08-09T05:15:00.474Z,4.93
2018-08-09T05:17:28.489Z,3.60
2018-08-09T05:19:56.472Z,4.87
2018-08-09T05:22:24.824Z,15.63
2018-08-09T05:24:52.806Z,4.70
2018-08-09T05:27:20.792Z,10.10
2018-08-09T05:29:48.834Z,13.93
2018-08-09T05:32:16.999Z,8.10
2018-08-09T05:34:45.279Z,8.30
2018-08-09T05:37:13.390Z,7.70
2018-08-09T05:39:41.378Z,9.20
2018-08-09T05:42:09.375Z,5.40
2018-08-09T05:44:37.354Z,4.40
2018-08-09T05:47:05.343Z,4.20
2018-08-09T05:49:34.939Z,5.00
2018-08-09T05:52:02.957Z,6.40
2018-08-09T05:54:30.966Z,6.83
2018-08-09T05:56:58.950Z,10.40
2018-08-09T05:59:26.946Z,4.53
2018-08-09T06:01:54.934Z,4.57
2018-08-09T06:04:22.937Z,5.23
2018-08-09T06:06:50.941Z,6.53
2018-08-09T06:09:18.907Z,7.90
2018-08-09T06:11:46.897Z,3.80
2018-08-09T06:14:14.874Z,5.80
2018-08-09T06:16:42.858Z,5.60
2018-08-09T06:19:10.853Z,3.47
2018-08-09T06:21:38.826Z,10.10
2018-08-09T06:24:06.823Z,7.73
2018-08-09T06:26:34.865Z,14.00
2018-08-09T06:29:02.812Z,5.37
2018-08-09T06:31:30.781Z,8.47
2018-08-09T06:33:58.771Z,6.20
2018-08-09T06:36:26.794Z,6.53
2018-08-09T06:38:54.806Z,12.23
2018-08-09T06:41:22.785Z,4.37
2018-08-09T06:43:50.778Z,5.10
2018-08-09T06:46:18.756Z,10.13
2018-08-09T06:48:46.781Z,4.50
2018-08-09T06:51:14.770Z,4.73
2018-08-09T06:53:42.759Z,6.53
2018-08-09T06:56:10.753Z,9.10
2018-08-09T06:58:38.735Z,8.00
2018-08-09T07:01:06.718Z,5.80
2018-08-09T07:03:34.715Z,5.50
2018-08-09T07:06:02.704Z,6.50
2018-08-09T07:08:30.755Z,14.60
2018-08-09T07:10:58.731Z,4.27
2018-08-09T07:13:26.722Z,9.53
2018-08-09T07:15:54.690Z,5.37
2018-08-09T07:18:22.780Z,4.43
2018-08-09T07:20:50.875Z,3.40
2018-08-09T07:23:18.929Z,3.60
2018-08-09T07:25:46.936Z,4.10
2018-08-09T07:28:21.535Z,3.57
2018-08-09T07:30:49.575Z,6.80
2018-08-09T07:33:17.594Z,2.70
2018-08-09T07:35:51.904Z,2.60
2018-08-09T07:38:19.982Z,3.30
2018-08-09T07:40:47.978Z,2.83
2018-08-09T07:43:16.041Z,3.33
2018-08-09T07:45:44.040Z,3.13
2018-08-09T07:48:12.051Z,6.00
2018-08-09T07:50:40.076Z,6.23
2018-08-09T07:53:08.103Z,4.10
2018-08-09T07:55:36.115Z,4.30
2018-08-09T07:58:04.118Z,4.30
2018-08-09T08:00:32.117Z,6.07
2018-08-09T08:03:00.142Z,3.57
2018-08-09T08:05:28.191Z,2.40
2018-08-09T08:07:56.194Z,5.23
2018-08-09T08:10:24.217Z,4.27
2018-08-09T08:12:52.208Z,4.80
2018-08-09T08:15:20.222Z,2.47
2018-08-09T08:17:48.215Z,2.87
2018-08-09T08:20:16.306Z,2.20
2018-08-09T08:22:44.328Z,1.60
2018-08-09T08:25:12.315Z,2.40
2018-08-09T08:27:40.296Z,2.10
2018-08-09T08:30:09.227Z,4.43
2018-08-09T08:32:37.443Z,2.80
2018-08-09T08:35:05.649Z,2.10
2018-08-09T08:37:33.630Z,1.60
2018-08-09T08:40:01.715Z,9.93
2018-08-09T08:42:29.740Z,2.23
2018-08-09T08:44:57.740Z,2.70
2018-08-09T08:47:25.756Z,3.83
2018-08-09T08:49:53.789Z,3.73
2018-08-09T08:52:21.864Z,3.03
2018-08-09T08:54:49.951Z,1.53
2018-08-09T08:57:17.930Z,6.70
2018-08-09T08:59:45.983Z,2.70
2018-08-09T09:02:14.044Z,2.40
2018-08-09T09:04:42.027Z,2.77
2018-08-09T09:07:10.170Z,5.27
2018-08-09T09:09:38.019Z,2.73
2018-08-09T09:12:06.154Z,1.60
2018-08-09T09:14:34.164Z,2.27
2018-08-09T09:17:02.162Z,2.27
2018-08-09T09:19:30.216Z,4.00
2018-08-09T09:21:58.304Z,2.80
2018-08-09T09:24:26.290Z,3.77
2018-08-09T09:26:54.321Z,3.37
2018-08-09T09:29:22.306Z,1.43
2018-08-09T09:31:50.306Z,7.13
2018-08-09T09:34:18.326Z,1.23
2018-08-09T09:36:46.403Z,4.20
2018-08-09T09:39:14.443Z,1.20
2018-08-09T09:41:42.464Z,2.00
2018-08-09T09:44:10.585Z,1.50
2018-08-09T09:46:38.659Z,2.30
2018-08-09T09:49:06.679Z,2.60
2018-08-09T09:51:34.747Z,1.30
2018-08-09T09:54:02.935Z,1.70
2018-08-09T09:56:30.990Z,1.57
2018-08-09T09:58:59.086Z,1.30
2018-08-09T10:01:32.456Z,1.70
2018-08-09T10:04:00.518Z,2.03
2018-08-09T10:06:28.773Z,1.90
2018-08-09T10:08:56.803Z,2.00
2018-08-09T10:11:24.807Z,2.03
2018-08-09T10:13:52.929Z,1.63
2018-08-09T10:16:20.962Z,1.50
2018-08-09T10:18:49.171Z,1.53
2018-08-09T10:21:17.318Z,1.40
2018-08-09T10:23:45.516Z,1.50
2018-08-09T10:26:13.578Z,1.10
2018-08-09T10:28:41.643Z,1.47
2018-08-09T10:31:09.682Z,1.50
2018-08-09T10:33:37.706Z,2.50
2018-08-09T10:36:05.713Z,2.50
2018-08-09T10:38:33.724Z,1.70
2018-08-09T10:41:01.795Z,3.07
2018-08-09T10:43:29.818Z,6.60
2018-08-09T10:45:57.822Z,1.70
2018-08-09T10:48:25.919Z,1.43
2018-08-09T10:50:53.928Z,1.60
2018-08-09T10:53:21.983Z,3.43
2018-08-09T10:55:49.986Z,1.97
2018-08-09T10:58:18.049Z,1.50
2018-08-09T11:00:46.058Z,1.67
2018-08-09T11:03:14.076Z,1.87
2018-08-09T11:05:42.092Z,2.80
2018-08-09T11:08:10.200Z,1.60
2018-08-09T11:10:38.138Z,1.77
2018-08-09T11:13:06.349Z,1.57
2018-08-09T11:15:34.355Z,1.77
2018-08-09T11:18:02.369Z,2.00
2018-08-09T11:20:30.374Z,1.80
2018-08-09T11:22:58.370Z,1.70
2018-08-09T11:25:26.365Z,1.83
2018-08-09T11:27:54.347Z,1.47
2018-08-09T11:30:22.363Z,2.00
2018-08-09T11:32:50.352Z,7.00
2018-08-09T11:35:18.364Z,2.73
2018-08-09T11:37:46.342Z,2.23
2018-08-09T11:40:14.334Z,1.80
2018-08-09T11:42:42.335Z,3.90
2018-08-09T11:45:10.352Z,1.90
2018-08-09T11:47:38.348Z,1.20
2018-08-09T11:50:06.592Z,1.50
2018-08-09T11:52:41.129Z,1.70
2018-08-09T11:55:09.159Z,1.20
2018-08-09T11:57:37.184Z,1.60
2018-08-09T12:00:05.812Z,1.53
2018-08-09T12:02:33.807Z,1.67
2018-08-09T12:05:01.931Z,1.43
2018-08-09T12:07:29.924Z,1.67
2018-08-09T12:09:57.942Z,1.60
2018-08-09T12:12:25.987Z,2.00
2018-08-09T12:15:56.498Z,1.63
2018-08-09T12:18:24.521Z,1.50
2018-08-09T12:20:52.552Z,2.07
2018-08-09T12:23:20.514Z,1.60
2018-08-09T12:25:48.703Z,4.87
2018-08-09T12:28:16.822Z,5.70
2018-08-09T12:30:44.946Z,1.47
2018-08-09T12:33:13.038Z,1.80
2018-08-09T12:35:41.136Z,1.40
2018-08-09T12:38:09.351Z,2.40
2018-08-09T12:40:37.410Z,1.93
2018-08-09T12:43:05.706Z,2.23
2018-08-09T12:45:33.756Z,1.80
2018-08-09T12:48:01.749Z,1.57
2018-08-09T12:50:29.750Z,1.80
2018-08-09T12:52:57.774Z,2.00
2018-08-09T12:55:25.759Z,6.23
2018-08-09T12:57:53.762Z,1.87
2018-08-09T13:00:21.815Z,1.40
2018-08-09T13:02:49.755Z,2.90
2018-08-09T13:05:17.752Z,1.77
2018-08-09T13:07:45.763Z,1.80
2018-08-09T13:10:14.272Z,2.00
2018-08-09T13:12:42.300Z,2.00
2018-08-09T13:15:11.746Z,1.80
2018-08-09T13:17:39.955Z,1.70
2018-08-09T13:20:09.363Z,1.70
2018-08-09T13:22:37.363Z,2.17
2018-08-09T13:25:05.365Z,1.93
2018-08-09T13:27:33.362Z,1.83
2018-08-09T13:30:01.359Z,1.70
2018-08-09T13:32:29.349Z,2.00
2018-08-09T13:34:57.353Z,6.50
2018-08-09T13:37:25.343Z,4.70
2018-08-09T13:39:53.398Z,2.20
2018-08-09T13:42:21.383Z,2.33
2018-08-09T13:44:49.395Z,2.47
2018-08-09T13:47:17.384Z,2.27
2018-08-09T13:49:45.387Z,2.00
2018-08-09T13:52:13.375Z,2.30
2018-08-09T13:54:41.379Z,2.97
2018-08-09T13:57:09.361Z,2.57
2018-08-09T13:59:37.375Z,3.13
2018-08-09T14:02:05.429Z,2.60
2018-08-09T14:04:33.480Z,2.60
2018-08-09T14:07:01.480Z,2.30
2018-08-09T14:09:29.483Z,2.57
2018-08-09T14:11:57.453Z,2.40
2018-08-09T14:14:25.530Z,2.30
2018-08-09T14:16:53.508Z,2.20
2018-08-09T14:19:21.499Z,2.40
2018-08-09T14:21:49.490Z,2.47
2018-08-09T14:24:17.478Z,2.97
2018-08-09T14:26:45.468Z,2.90
2018-08-09T14:29:13.540Z,3.23
2018-08-09T14:31:41.535Z,2.70
2018-08-09T14:34:09.624Z,3.07
2018-08-09T14:36:37.711Z,2.73
2018-08-09T14:39:07.233Z,2.37
2018-08-09T14:41:35.361Z,2.17
2018-08-09T14:44:03.356Z,2.87
2018-08-09T14:46:31.349Z,2.50
2018-08-09T14:48:59.347Z,2.70
2018-08-09T14:51:27.494Z,2.30
2018-08-09T14:53:55.498Z,2.43
2018-08-09T14:56:23.514Z,3.03
2018-08-09T14:58:51.508Z,3.23
2018-08-09T15:01:19.591Z,2.53
2018-08-09T15:03:47.872Z,2.60
2018-08-09T15:06:15.918Z,3.07
2018-08-09T15:08:44.078Z,6.10
2018-08-09T15:11:12.172Z,2.70
2018-08-09T15:13:40.218Z,4.23
2018-08-09T15:16:08.608Z,3.17
2018-08-09T15:18:36.620Z,5.80
2018-08-09T15:21:05.306Z,2.50
2018-08-09T15:23:33.670Z,3.27
2018-08-09T15:26:01.674Z,3.10
2018-08-09T15:28:29.686Z,5.30
2018-08-09T15:30:57.768Z,3.60
2018-08-09T15:33:25.755Z,5.93
2018-08-09T15:35:53.752Z,6.53
2018-08-09T15:38:21.801Z,4.03
2018-08-09T15:40:49.815Z,6.87
2018-08-09T15:43:17.819Z,4.70
2018-08-09T15:45:45.864Z,6.57
2018-08-09T15:48:13.884Z,3.53
2018-08-09T15:50:41.888Z,3.20
2018-08-09T15:53:09.883Z,4.07
2018-08-09T15:55:37.874Z,4.40
2018-08-09T15:58:05.871Z,3.53
2018-08-09T16:00:33.980Z,3.83
2018-08-09T16:03:02.003Z,4.30
2018-08-09T16:05:29.984Z,5.80
2018-08-09T16:07:58.035Z,8.73
2018-08-09T16:10:26.161Z,4.03
2018-08-09T16:12:54.237Z,3.33
2018-08-09T16:15:22.236Z,4.07
2018-08-09T16:17:50.218Z,5.13
2018-08-09T16:20:18.218Z,3.87
2018-08-09T16:22:46.691Z,7.43
2018-08-09T16:25:15.270Z,12.90
2018-08-09T16:27:43.343Z,4.30
2018-08-09T16:30:15.749Z,4.27
2018-08-09T16:35:36.206Z,4.10
2018-08-09T16:38:05.277Z,3.60
2018-08-09T16:40:34.032Z,3.53
2018-08-09T16:43:02.218Z,4.20
2018-08-09T16:45:30.624Z,4.73
2018-08-09T16:47:58.737Z,3.83
2018-08-09T16:50:26.816Z,6.87
2018-08-09T16:52:55.026Z,3.70
2018-08-09T16:55:23.543Z,5.17
2018-08-09T16:57:51.624Z,5.93
2018-08-09T17:00:20.395Z,4.67
2018-08-09T17:02:48.539Z,8.80
2018-08-09T17:05:18.487Z,3.80
2018-08-09T17:07:46.632Z,6.50
2018-08-09T17:10:15.622Z,6.97
2018-08-09T17:12:43.636Z,6.60
2018-08-09T17:15:13.118Z,5.93
2018-08-09T17:17:41.595Z,6.63
2018-08-09T17:20:11.996Z,4.87
2018-08-09T17:22:40.259Z,6.80
2018-08-09T17:25:09.282Z,5.80
2018-08-09T17:27:37.342Z,7.17
2018-08-09T17:30:05.769Z,6.53
2018-08-09T17:32:33.927Z,12.93
2018-08-09T17:35:01.936Z,22.30
2018-08-09T17:37:30.095Z,17.93
2018-08-09T17:39:58.183Z,10.23
2018-08-09T17:42:26.403Z,34.20
2018-08-09T17:44:54.408Z,12.93
2018-08-09T17:47:22.442Z,12.77
2018-08-09T17:49:50.639Z,11.83
2018-08-09T17:52:18.670Z,10.97
2018-08-09T17:54:46.684Z,11.93
2018-08-09T17:57:14.680Z,15.07
2018-08-09T17:59:42.798Z,14.43
2018-08-09T18:02:10.818Z,11.97
2018-08-09T18:04:38.827Z,15.40
2018-08-09T18:07:06.850Z,21.73
2018-08-09T18:09:34.851Z,13.13
2018-08-09T18:12:02.858Z,16.37
2018-08-09T18:14:30.853Z,16.30
2018-08-09T18:16:58.913Z,15.80
2018-08-09T18:19:27.009Z,17.47
2018-08-09T18:21:55.040Z,21.80
2018-08-09T18:24:23.039Z,18.40
2018-08-09T18:26:51.110Z,12.80
2018-08-09T18:29:19.123Z,14.30
2018-08-09T18:31:47.228Z,24.33
2018-08-09T18:34:15.266Z,15.60
2018-08-09T18:36:43.262Z,22.33
2018-08-09T18:39:11.803Z,19.03
2018-08-09T18:41:39.807Z,20.77
2018-08-09T18:44:07.806Z,20.23
2018-08-09T18:46:35.791Z,9.97
2018-08-09T18:49:03.795Z,11.70
2018-08-09T18:51:31.839Z,15.10
2018-08-09T18:53:59.911Z,11.23
2018-08-09T18:56:27.901Z,8.03
2018-08-09T18:58:55.965Z,14.63
2018-08-09T19:01:24.076Z,16.47
2018-08-09T19:03:52.063Z,15.77
2018-08-09T19:06:20.057Z,8.17
2018-08-09T19:08:48.062Z,16.60
2018-08-09T19:11:16.130Z,13.13
2018-08-09T19:13:44.672Z,15.70
2018-08-09T19:16:12.671Z,20.03
2018-08-09T19:18:40.726Z,12.63
2018-08-09T19:21:08.821Z,16.17
2018-08-09T19:23:36.806Z,16.60
2018-08-09T19:26:04.815Z,25.40
2018-08-09T19:28:32.824Z,13.03
2018-08-09T19:31:01.016Z,22.40
2018-08-09T19:33:35.687Z,8.80
2018-08-09T19:36:03.885Z,13.80
2018-08-09T19:38:31.928Z,13.93
2018-08-09T19:40:59.974Z,7.63
2018-08-09T19:43:28.004Z,12.57
2018-08-09T19:45:56.054Z,8.30
2018-08-09T19:48:24.228Z,11.60
2018-08-09T19:50:52.155Z,8.63
2018-08-09T19:53:20.159Z,12.27
2018-08-09T19:55:48.167Z,13.47
2018-08-09T19:58:16.189Z,16.10
2018-08-09T20:00:44.220Z,11.70
2018-08-09T20:03:12.234Z,11.83
2018-08-09T20:05:40.290Z,6.60
2018-08-09T20:08:08.406Z,6.13
2018-08-09T20:10:36.403Z,5.20
2018-08-09T20:13:04.411Z,8.40
2018-08-09T20:15:32.417Z,7.43
2018-08-09T20:18:00.499Z,7.37
2018-08-09T20:20:28.478Z,6.80
2018-08-09T20:22:56.534Z,15.00
2018-08-09T20:25:24.455Z,8.97
2018-08-09T20:27:52.474Z,10.20
2018-08-09T20:30:20.486Z,7.60
2018-08-09T20:32:48.800Z,7.67
2018-08-09T20:35:17.497Z,11.50
2018-08-09T20:37:46.182Z,10.10
2018-08-09T20:40:14.689Z,5.77
2018-08-09T20:42:43.303Z,8.63
2018-08-09T20:45:12.498Z,5.53
2018-08-09T20:47:40.590Z,6.13
2018-08-09T20:50:09.710Z,6.17
2018-08-09T20:52:38.234Z,10.13
2018-08-09T20:55:06.293Z,13.60
2018-08-09T20:57:34.502Z,8.07
2018-08-09T21:00:02.478Z,7.93
2018-08-09T21:02:30.466Z,4.87
2018-08-09T21:04:58.439Z,6.77
2018-08-09T21:07:26.420Z,5.90
2018-08-09T21:09:54.410Z,5.60
2018-08-09T21:12:22.414Z,6.60
2018-08-09T21:14:50.395Z,9.03
2018-08-09T21:17:18.369Z,7.40
2018-08-09T21:19:46.358Z,6.87
2018-08-09T21:24:59.773Z,8.63
2018-08-09T21:27:27.787Z,4.30
2018-08-09T21:29:55.781Z,15.87
2018-08-09T21:32:24.081Z,7.90
2018-08-09T21:34:52.021Z,8.23
2018-08-09T21:37:20.057Z,7.67
2018-08-09T21:39:48.050Z,5.03
2018-08-09T21:42:16.049Z,7.80
2018-08-09T21:44:44.037Z,8.00
2018-08-09T21:47:12.053Z,8.97
2018-08-09T21:49:40.072Z,6.30
2018-08-09T21:52:08.038Z,14.63
2018-08-09T21:54:36.063Z,8.90
2018-08-09T21:57:04.086Z,5.17
2018-08-09T21:59:32.265Z,6.10
2018-08-09T22:02:00.436Z,9.50
2018-08-09T22:04:28.472Z,4.40
2018-08-09T22:07:01.998Z,7.37
2018-08-09T22:09:35.621Z,7.77
2018-08-09T22:12:09.294Z,7.40
2018-08-09T22:15:43.510Z,6.10
2018-08-09T22:18:17.386Z,7.50
2018-08-09T22:20:51.248Z,6.40
2018-08-09T22:23:19.385Z,3.80
2018-08-09T22:25:47.369Z,3.67
2018-08-09T22:28:15.361Z,3.50
2018-08-09T22:30:43.357Z,9.43
2018-08-09T22:33:11.357Z,6.90
2018-08-09T22:35:39.356Z,3.57
2018-08-09T22:38:07.359Z,3.23
2018-08-09T22:40:35.334Z,15.73
2018-08-09T22:43:03.338Z,3.03
2018-08-09T22:45:31.333Z,4.47
2018-08-09T22:47:59.329Z,5.40
2018-08-09T22:50:27.341Z,8.60
2018-08-09T22:52:55.354Z,5.27
2018-08-09T22:55:23.338Z,9.73
2018-08-09T22:57:51.356Z,4.23
2018-08-09T23:00:22.369Z,8.50
2018-08-09T23:02:50.512Z,11.03
2018-08-09T23:05:18.833Z,6.90
2018-08-09T23:07:46.833Z,4.83
2018-08-09T23:10:14.874Z,6.80
2018-08-09T23:12:43.346Z,5.67
2018-08-09T23:15:11.365Z,7.07
2018-08-09T23:17:39.537Z,6.00
2018-08-09T23:20:08.491Z,4.20
2018-08-09T23:22:36.494Z,3.23
2018-08-09T23:25:06.010Z,5.47
2018-08-09T23:27:33.999Z,7.50
2018-08-09T23:30:01.993Z,13.00
2018-08-09T23:32:29.985Z,4.03
2018-08-09T23:34:58.059Z,9.17
2018-08-09T23:37:25.989Z,5.50
2018-08-09T23:39:54.008Z,6.93
2018-08-09T23:42:22.001Z,10.60
2018-08-09T23:44:50.006Z,7.27
2018-08-09T23:47:18.006Z,10.97
2018-08-09T23:49:46.007Z,5.93
2018-08-09T23:52:14.002Z,5.90
2018-08-09T23:54:42.005Z,6.23
2018-08-09T23:57:10.026Z,4.87
2018-08-09T23:59:38.035Z,5.60
